createdAt,value
2022-08-17T00:03:17.577Z,26.8
2022-08-17T00:13:19.608Z,26.8
2022-08-17T00:23:21.620Z,26.8
2022-08-17T00:33:24.237Z,26.8
2022-08-17T00:43:26.201Z,26.7
2022-08-17T00:53:28.623Z,26.7
2022-08-17T01:03:30.673Z,26.7
2022-08-17T01:13:35.571Z,26.6
2022-08-17T01:23:35.014Z,26.6
2022-08-17T01:33:36.908Z,26.6
2022-08-17T01:43:39.178Z,26.5
2022-08-17T01:53:41.473Z,26.5
2022-08-17T02:03:53.570Z,26.5
2022-08-17T02:13:45.906Z,26.4
2022-08-17T02:23:48.112Z,26.4
2022-08-17T02:33:56.933Z,26.4
2022-08-17T02:43:52.943Z,26.3
2022-08-17T02:54:02.240Z,26.3
2022-08-17T03:03:56.317Z,26.2
2022-08-17T03:13:58.349Z,26.2
2022-08-17T03:24:00.355Z,26.2
2022-08-17T03:44:04.879Z,26.1
2022-08-17T03:54:07.728Z,26.1
2022-08-17T04:04:09.250Z,26
2022-08-17T04:14:11.933Z,26
2022-08-17T04:24:14.264Z,25.9
2022-08-17T04:34:16.126Z,25.9
2022-08-17T04:44:27.192Z,25.9
2022-08-17T04:54:20.433Z,25.8
2022-08-17T05:04:33.363Z,25.8
2022-08-17T05:14:27.260Z,25.8
2022-08-17T05:34:29.456Z,25.8
2022-08-17T05:44:31.508Z,25.7
2022-08-17T05:54:34.105Z,25.7
2022-08-17T06:04:36.737Z,25.7
2022-08-17T06:14:39.084Z,25.7
2022-08-17T06:24:41.059Z,25.7
2022-08-17T06:34:43.682Z,25.7
2022-08-17T06:44:50.540Z,25.7
2022-08-17T06:54:48.469Z,25.7
2022-08-17T07:04:50.771Z,25.7
2022-08-17T07:14:52.628Z,25.8
2022-08-17T07:24:54.601Z,25.8
2022-08-17T07:34:56.697Z,25.8
2022-08-17T07:44:58.718Z,25.8
2022-08-17T07:55:01.342Z,25.8
2022-08-17T08:15:06.598Z,25.9
2022-08-17T08:25:08.005Z,25.9
2022-08-17T08:35:10.398Z,25.9
2022-08-17T08:55:14.576Z,26
2022-08-17T09:05:16.412Z,26
2022-08-17T09:15:18.199Z,26.1
2022-08-17T09:35:22.898Z,26.2
2022-08-17T11:15:44.507Z,26.6
2022-08-17T11:35:49.047Z,26.6
2022-08-17T11:45:51.474Z,26.6
2022-08-17T12:05:55.157Z,26.6
2022-08-17T12:15:56.875Z,26.7
2022-08-17T12:25:58.576Z,26.7
2022-08-17T12:36:00.294Z,26.7
2022-08-17T12:46:10.653Z,26.7
2022-08-17T12:56:04.500Z,26.7
2022-08-17T13:06:06.981Z,26.7
2022-08-17T13:16:08.921Z,26.8
2022-08-17T13:26:11.037Z,26.8
2022-08-17T13:36:13.272Z,26.8
2022-08-17T13:56:31.610Z,26.8
2022-08-17T14:06:23.752Z,26.9
2022-08-17T14:26:24.802Z,26.9
2022-08-17T14:36:26.634Z,26.9
2022-08-17T14:46:29.090Z,26.9
2022-08-17T14:56:31.744Z,26.9
2022-08-17T15:06:32.723Z,27
2022-08-17T15:26:37.270Z,27
2022-08-17T15:36:45.479Z,27
2022-08-17T15:46:41.716Z,27
2022-08-17T16:06:46.012Z,27.1
2022-08-17T16:16:48.387Z,27.1
2022-08-17T16:26:50.719Z,27.1
2022-08-17T16:36:55.854Z,27.1
2022-08-17T16:46:55.381Z,27.1
2022-08-17T16:56:57.211Z,27.1
2022-08-17T17:06:59.012Z,27.1
2022-08-17T17:17:00.798Z,27.1
2022-08-17T17:37:05.136Z,27.2
2022-08-17T17:47:07.416Z,27.2
2022-08-17T17:57:09.467Z,27.2
2022-08-17T18:07:11.779Z,27.2
2022-08-17T18:17:14.094Z,27.2
2022-08-17T18:27:16.032Z,27.2
2022-08-17T18:37:19.360Z,27.2
2022-08-17T18:47:20.825Z,27.2
2022-08-17T19:07:25.449Z,27.2
2022-08-17T19:17:27.445Z,27.2
2022-08-17T19:37:38.810Z,27.2
2022-08-17T19:47:54.655Z,27.2
2022-08-17T19:57:42.459Z,27.2
2022-08-17T20:07:45.119Z,27.2
2022-08-17T20:17:47.265Z,27.2
2022-08-17T20:27:49.950Z,27.1
2022-08-17T20:37:52.243Z,27.1
2022-08-17T20:48:15.495Z,27
2022-08-17T20:57:56.295Z,27
2022-08-17T21:07:58.046Z,27
2022-08-17T21:28:02.926Z,26.9
2022-08-17T21:38:05.262Z,26.8
2022-08-17T21:48:07.676Z,26.8
2022-08-17T22:08:16.512Z,26.7
2022-08-17T22:18:14.508Z,26.7
2022-08-17T22:38:19.110Z,26.6
2022-08-17T22:48:21.651Z,26.6
2022-08-17T22:58:24.314Z,26.5
2022-08-17T23:08:26.480Z,26.5
2022-08-17T23:18:28.568Z,26.4
2022-08-17T23:28:31.221Z,26.4
2022-08-17T23:38:33.083Z,26.3
2022-08-17T23:48:37.223Z,26.3
2022-08-17T23:58:38.043Z,26.2
